Time;durP1;ratioP1;P1;durP2;ratioP2;P2;SDS_P1;SDS_P2;PMS_P1;PMS_P2;Temp;Humidity;BMP_temperature;BMP_pressure;BME280_temperature;BME280_humidity;BME280_pressure;Samples;Min_cycle;Max_cycle;Signal;HPM_P1;HPM_P2
2021/12/04 00:02:06;;;;;;;11.70;10.60;;;2.00;99.90;;;;;;4937399;29;20210;-73
2021/12/04 00:04:36;;;;;;;11.37;10.57;;;2.00;99.90;;;;;;4935381;29;20265;-74
2021/12/04 00:07:04;;;;;;;11.63;10.83;;;2.00;99.90;;;;;;4936736;29;20229;-73
2021/12/04 00:09:30;;;;;;;12.20;11.30;;;2.00;99.90;;;;;;4937747;29;20291;-73
2021/12/04 00:12:00;;;;;;;11.97;10.97;;;2.00;99.90;;;;;;4935765;29;20221;-73
2021/12/04 00:14:26;;;;;;;13.27;12.07;;;2.00;99.90;;;;;;4939358;29;20233;-73
2021/12/04 00:16:53;;;;;;;15.03;13.83;;;2.10;99.90;;;;;;4940687;29;20573;-73
2021/12/04 00:19:19;;;;;;;13.00;11.97;;;2.20;99.90;;;;;;4917044;29;20231;-73
2021/12/04 00:21:45;;;;;;;11.03;10.17;;;2.20;99.90;;;;;;4918600;29;20231;-73
2021/12/04 00:24:11;;;;;;;11.60;10.17;;;2.10;99.90;;;;;;4918165;29;20183;-74
2021/12/04 00:26:38;;;;;;;10.27;9.47;;;2.20;99.90;;;;;;4917332;29;20246;-74
2021/12/04 00:29:05;;;;;;;9.23;8.37;;;2.10;99.90;;;;;;4917424;29;20194;-74
2021/12/04 00:31:31;;;;;;;9.50;8.60;;;2.10;99.90;;;;;;4915546;29;20205;-74
2021/12/04 00:33:58;;;;;;;8.90;8.20;;;2.20;99.90;;;;;;4931778;29;20183;-74
2021/12/04 00:36:43;;;;;;;8.83;7.93;;;2.10;99.90;;;;;;4917088;29;20191;-74
2021/12/04 00:50:08;;;;;;;7.97;7.33;;;2.20;99.90;;;;;;4929350;29;20198;-73
2021/12/04 00:52:33;;;;;;;8.27;7.57;;;2.20;99.90;;;;;;4941345;29;20208;-74
2021/12/04 00:55:00;;;;;;;8.77;7.40;;;2.20;99.90;;;;;;4945640;29;20196;-74
2021/12/04 00:57:26;;;;;;;7.17;6.60;;;2.20;99.90;;;;;;4934363;29;20184;-74
2021/12/04 00:59:51;;;;;;;9.23;8.23;;;2.20;99.90;;;;;;4934357;29;20185;-74
2021/12/04 01:02:18;;;;;;;8.57;7.80;;;2.20;99.90;;;;;;4933757;29;20210;-74
2021/12/04 01:04:44;;;;;;;8.00;7.40;;;2.20;99.90;;;;;;4933519;29;20190;-74
2021/12/04 01:07:10;;;;;;;8.77;8.07;;;2.30;99.90;;;;;;4934895;29;20570;-74
2021/12/04 01:09:36;;;;;;;8.53;7.80;;;2.20;99.90;;;;;;4924937;29;20563;-74
2021/12/04 01:12:04;;;;;;;10.17;9.03;;;2.20;99.90;;;;;;4934667;29;20215;-74
2021/12/04 01:14:31;;;;;;;9.43;8.67;;;2.20;99.90;;;;;;4934530;29;20179;-74
2021/12/04 01:16:58;;;;;;;8.37;7.80;;;2.20;99.90;;;;;;4934981;29;20189;-74
2021/12/04 01:19:25;;;;;;;9.67;8.53;;;2.20;99.90;;;;;;4934632;29;20189;-74
2021/12/04 01:21:53;;;;;;;9.33;8.57;;;2.30;99.90;;;;;;4934322;29;20219;-74
2021/12/04 01:24:20;;;;;;;7.70;7.10;;;2.20;99.90;;;;;;4933204;29;20659;-74
2021/12/04 01:26:47;;;;;;;8.30;7.67;;;2.20;99.90;;;;;;4933584;29;20188;-73
2021/12/04 01:29:14;;;;;;;7.73;7.10;;;2.20;99.90;;;;;;4935269;29;20193;-74
2021/12/04 01:31:40;;;;;;;8.70;7.80;;;2.20;99.90;;;;;;4933491;29;20205;-73
2021/12/04 01:34:07;;;;;;;7.90;7.13;;;2.20;99.90;;;;;;4935780;29;20181;-73
2021/12/04 01:36:33;;;;;;;8.47;7.80;;;2.20;99.90;;;;;;4933746;29;20193;-74
2021/12/04 01:38:59;;;;;;;9.20;8.40;;;2.20;99.90;;;;;;4934656;29;20614;-74
2021/12/04 01:41:25;;;;;;;7.80;7.10;;;2.20;99.90;;;;;;4933755;29;20202;-74
2021/12/04 01:43:51;;;;;;;10.43;8.70;;;2.20;99.90;;;;;;4933130;29;20268;-74
2021/12/04 01:46:17;;;;;;;11.03;10.03;;;2.20;99.90;;;;;;4929571;29;20659;-75
2021/12/04 01:48:43;;;;;;;10.23;9.37;;;2.20;99.90;;;;;;4915125;29;20258;-74
2021/12/04 01:51:09;;;;;;;9.67;9.00;;;2.20;99.90;;;;;;4914842;29;20235;-73
2021/12/04 01:53:35;;;;;;;10.97;10.17;;;2.20;99.90;;;;;;4914624;29;20280;-75
2021/12/04 01:56:01;;;;;;;11.23;10.27;;;2.20;99.90;;;;;;4915048;29;20187;-74
2021/12/04 01:58:28;;;;;;;11.07;10.17;;;2.20;99.90;;;;;;4915013;29;20703;-73
2021/12/04 02:00:55;;;;;;;10.50;9.83;;;2.20;99.90;;;;;;4925467;29;20681;-74
2021/12/04 02:03:21;;;;;;;11.10;10.30;;;2.20;99.90;;;;;;4934069;29;20195;-74
2021/12/04 02:05:48;;;;;;;8.87;8.37;;;2.20;99.90;;;;;;4933874;29;20232;-75
2021/12/04 02:08:17;;;;;;;9.60;8.93;;;2.10;99.90;;;;;;4933681;29;20641;-74
2021/12/04 02:10:45;;;;;;;8.67;8.00;;;2.10;99.90;;;;;;4932249;29;20241;-73
2021/12/04 02:13:11;;;;;;;9.10;8.40;;;2.10;99.90;;;;;;4933997;29;20241;-76
2021/12/04 02:15:37;;;;;;;10.83;10.00;;;2.10;99.90;;;;;;4929519;29;20556;-74
2021/12/04 02:18:05;;;;;;;10.07;9.07;;;2.20;99.90;;;;;;4914227;29;20216;-75
2021/12/04 02:20:33;;;;;;;8.60;8.00;;;2.20;99.90;;;;;;4914519;29;20574;-73
2021/12/04 02:23:02;;;;;;;8.57;7.97;;;2.10;99.90;;;;;;4913855;29;20197;-74
2021/12/04 02:25:28;;;;;;;12.07;11.17;;;2.00;99.90;;;;;;4914753;29;20180;-74
2021/12/04 02:27:54;;;;;;;15.07;13.87;;;1.90;99.90;;;;;;4919321;29;20192;-73
2021/12/04 02:30:24;;;;;;;12.80;12.00;;;1.90;99.90;;;;;;4933640;29;20214;-73
2021/12/04 02:32:52;;;;;;;10.57;9.87;;;1.80;99.90;;;;;;4933830;29;20225;-74
2021/12/04 02:35:19;;;;;;;9.73;9.03;;;1.80;99.90;;;;;;4933916;29;20179;-73
2021/12/04 02:37:46;;;;;;;10.60;8.67;;;1.80;99.90;;;;;;4932632;29;20673;-73
2021/12/04 02:40:14;;;;;;;9.13;8.47;;;1.80;99.90;;;;;;4932202;29;20187;-72
2021/12/04 02:42:41;;;;;;;7.93;7.33;;;1.70;99.90;;;;;;4928778;29;20190;-71
2021/12/04 02:45:09;;;;;;;11.00;9.27;;;1.70;99.90;;;;;;4914569;29;20184;-72
2021/12/04 02:47:36;;;;;;;9.17;8.47;;;1.70;99.90;;;;;;4920277;29;20211;-72
2021/12/04 02:50:05;;;;;;;9.63;8.60;;;1.60;99.90;;;;;;4933324;29;20854;-73
2021/12/04 02:52:31;;;;;;;10.13;9.33;;;1.60;99.90;;;;;;4934984;29;20215;-72
2021/12/04 02:54:57;;;;;;;9.40;8.60;;;1.60;99.90;;;;;;4935797;29;20178;-73
2021/12/04 02:57:24;;;;;;;9.93;9.03;;;1.60;99.90;;;;;;4934087;29;20194;-72
2021/12/04 02:59:50;;;;;;;10.63;9.63;;;1.60;99.90;;;;;;4935281;29;20262;-73
2021/12/04 03:02:22;;;;;;;11.10;9.13;;;1.60;99.90;;;;;;4936330;29;20688;-72
2021/12/04 03:04:58;;;;;;;10.90;8.97;;;1.60;99.90;;;;;;4934599;29;20189;-73
2021/12/04 03:07:24;;;;;;;10.07;9.03;;;1.60;99.90;;;;;;4933206;29;20611;-73
2021/12/04 03:09:51;;;;;;;9.40;8.60;;;1.60;99.90;;;;;;4932784;29;20652;-73
2021/12/04 03:12:19;;;;;;;10.67;9.67;;;1.50;99.90;;;;;;4933152;29;20209;-72
2021/12/04 03:14:46;;;;;;;11.57;8.83;;;1.50;99.90;;;;;;4932363;29;20202;-73
2021/12/04 03:17:14;;;;;;;10.73;9.63;;;1.60;99.90;;;;;;4932292;29;20678;-73
2021/12/04 03:19:41;;;;;;;10.30;9.27;;;1.60;99.90;;;;;;4934410;29;20625;-73
2021/12/04 03:22:08;;;;;;;11.27;9.67;;;1.60;99.90;;;;;;4944052;23;20637;-78
2021/12/04 03:24:37;;;;;;;10.17;9.27;;;1.60;99.90;;;;;;4921842;29;20190;-78
2021/12/04 03:27:03;;;;;;;11.37;10.37;;;1.60;99.90;;;;;;4918274;29;20196;-78
2021/12/04 03:29:30;;;;;;;10.63;9.73;;;1.60;99.90;;;;;;4916826;29;20278;-77
2021/12/04 03:42:49;;;;;;;9.47;8.63;;;1.60;99.90;;;;;;4921871;29;20594;-79
2021/12/04 03:45:15;;;;;;;11.20;10.30;;;1.60;99.90;;;;;;4955047;28;20239;-79
2021/12/04 03:47:47;;;;;;;13.00;11.90;;;1.60;99.90;;;;;;4917830;29;20201;-80
2021/12/04 03:50:13;;;;;;;14.00;12.80;;;1.60;99.90;;;;;;4917282;29;20191;-80
2021/12/04 03:52:39;;;;;;;19.97;18.20;;;1.60;99.90;;;;;;4919795;29;20219;-79
2021/12/04 03:55:06;;;;;;;13.57;12.57;;;1.60;99.90;;;;;;4917325;29;20216;-79
2021/12/04 03:57:33;;;;;;;14.20;13.10;;;1.60;99.90;;;;;;4932999;29;20210;-79
2021/12/04 03:59:59;;;;;;;14.37;12.97;;;1.60;99.90;;;;;;4919729;29;20211;-77
2021/12/04 04:02:26;;;;;;;14.77;13.73;;;1.70;99.90;;;;;;4933152;29;20213;-77
2021/12/04 04:04:52;;;;;;;13.27;12.17;;;1.70;99.90;;;;;;4947752;29;20214;-78
2021/12/04 04:07:18;;;;;;;13.73;12.63;;;1.70;99.90;;;;;;4940823;29;20260;-79
2021/12/04 04:09:44;;;;;;;13.40;12.50;;;1.70;99.90;;;;;;4918030;29;20669;-79
2021/12/04 04:12:10;;;;;;;12.93;11.70;;;1.70;99.90;;;;;;4933052;29;20310;-79
2021/12/04 04:14:36;;;;;;;15.80;14.37;;;1.70;99.90;;;;;;4924753;29;20218;-79
2021/12/04 04:17:02;;;;;;;14.93;13.83;;;1.60;99.90;;;;;;4923097;29;20183;-79
2021/12/04 04:19:28;;;;;;;14.37;13.07;;;1.60;99.90;;;;;;4936411;29;20194;-78
2021/12/04 04:21:56;;;;;;;13.13;12.23;;;1.70;99.90;;;;;;4889955;29;1156297;-79
2021/12/04 04:24:25;;;;;;;20.70;19.30;;;1.70;99.90;;;;;;4925837;29;20187;-79
2021/12/04 04:26:51;;;;;;;24.20;22.63;;;1.70;99.90;;;;;;4919405;29;20267;-79
2021/12/04 04:29:17;;;;;;;20.70;19.33;;;1.70;99.90;;;;;;4918186;29;20648;-79
2021/12/04 04:31:46;;;;;;;16.07;14.77;;;1.70;99.90;;;;;;4917232;29;20214;-79
2021/12/04 04:34:26;;;;;;;12.83;11.80;;;1.70;99.90;;;;;;4933585;29;20184;-79
2021/12/04 04:58:56;;;;;;;15.47;14.17;;;2.00;99.90;;;;;;4922748;29;20628;-78
2021/12/04 05:14:40;;;;;;;26.43;24.63;;;2.00;99.90;;;;;;4918478;29;20181;-78
2021/12/04 05:17:13;;;;;;;25.03;23.30;;;2.10;99.90;;;;;;4917136;29;20189;-77
2021/12/04 05:19:42;;;;;;;41.27;38.57;;;2.10;99.90;;;;;;4917773;29;20272;-76
2021/12/04 05:22:10;;;;;;;26.53;24.77;;;2.00;99.90;;;;;;4917346;29;20269;-80
2021/12/04 05:24:36;;;;;;;30.80;28.87;;;2.00;99.90;;;;;;4917366;29;20189;-78
2021/12/04 05:27:03;;;;;;;17.40;16.07;;;2.10;99.90;;;;;;4916612;29;20191;-79
2021/12/04 05:29:29;;;;;;;19.27;17.73;;;2.10;99.90;;;;;;4912586;29;20651;-78
2021/12/04 05:31:55;;;;;;;45.67;42.90;;;2.10;99.90;;;;;;4897767;29;20337;-78
2021/12/04 05:34:21;;;;;;;35.03;32.80;;;2.10;99.90;;;;;;4898934;29;20280;-77
2021/12/04 05:36:47;;;;;;;37.00;34.57;;;2.10;99.90;;;;;;4905689;29;20206;-76
2021/12/04 05:39:13;;;;;;;29.20;27.37;;;2.20;99.90;;;;;;4917017;29;20566;-78
2021/12/04 05:41:39;;;;;;;35.37;33.27;;;2.20;99.90;;;;;;4915981;29;20203;-78
2021/12/04 05:44:06;;;;;;;37.23;35.00;;;2.20;99.90;;;;;;4931181;29;20238;-78
2021/12/04 05:57:10;;;;;;;13.63;12.30;;;2.30;99.90;;;;;;4925051;29;20181;-77
2021/12/04 05:59:37;;;;;;;23.83;22.23;;;2.30;99.90;;;;;;4919562;29;20192;-77
2021/12/04 06:02:04;;;;;;;22.37;20.67;;;2.40;99.90;;;;;;4916270;29;20210;-79
2021/12/04 06:04:30;;;;;;;30.83;28.73;;;2.30;99.90;;;;;;4914335;29;20188;-75
2021/12/04 06:06:56;;;;;;;23.70;22.07;;;2.30;99.90;;;;;;4917713;29;20213;-77
2021/12/04 06:09:22;;;;;;;18.73;17.50;;;2.30;99.90;;;;;;4920371;29;20192;-77
2021/12/04 06:11:48;;;;;;;21.03;19.57;;;2.30;99.90;;;;;;4922758;29;20761;-78
2021/12/04 06:14:14;;;;;;;24.83;23.07;;;2.40;99.90;;;;;;4917160;29;20800;-76
2021/12/04 06:16:40;;;;;;;20.27;18.87;;;2.40;99.90;;;;;;4916105;29;20215;-76
2021/12/04 06:19:12;;;;;;;23.53;21.80;;;2.40;99.90;;;;;;4917171;29;20239;-78
2021/12/04 06:24:24;;;;;;;52.40;49.47;;;2.40;99.90;;;;;;4916587;29;20180;-79
2021/12/04 06:26:50;;;;;;;82.00;77.50;;;2.40;99.90;;;;;;4916178;29;20236;-79
2021/12/04 06:29:16;;;;;;;65.17;61.30;;;2.40;99.90;;;;;;4915535;29;20179;-77
2021/12/04 06:31:42;;;;;;;44.70;42.03;;;2.30;99.90;;;;;;4913767;29;20687;-78
2021/12/04 06:34:07;;;;;;;72.53;68.33;;;2.40;99.90;;;;;;4915229;29;20207;-72
2021/12/04 06:36:35;;;;;;;93.47;88.23;;;2.40;99.90;;;;;;4914153;29;20188;-73
2021/12/04 06:39:00;;;;;;;36.90;34.27;;;2.40;99.90;;;;;;4913674;29;20193;-73
2021/12/04 06:41:26;;;;;;;43.47;40.80;;;2.40;99.90;;;;;;4914133;29;20206;-71
2021/12/04 06:43:54;;;;;;;53.93;50.63;;;2.40;99.90;;;;;;4928729;29;20188;-71
2021/12/04 06:46:22;;;;;;;354.43;334.03;;;2.50;99.90;;;;;;4914196;29;20191;-72
2021/12/04 06:51:26;;;;;;;271.70;256.57;;;2.40;99.90;;;;;;4913761;29;20235;-72
2021/12/04 06:56:53;;;;;;;119.53;112.83;;;2.40;99.90;;;;;;4915899;29;20197;-72
2021/12/04 06:59:26;;;;;;;91.17;86.07;;;2.40;99.90;;;;;;4917212;29;20200;-72
2021/12/04 07:01:52;;;;;;;23.50;21.73;;;2.50;99.90;;;;;;4915804;29;20210;-72
2021/12/04 07:04:19;;;;;;;15.50;14.20;;;2.40;99.90;;;;;;4917963;29;20188;-73
2021/12/04 07:06:47;;;;;;;15.37;13.93;;;2.50;99.90;;;;;;4918103;29;20270;-72
2021/12/04 07:09:13;;;;;;;13.97;10.53;;;2.50;99.90;;;;;;4918137;29;20184;-73
2021/12/04 07:11:39;;;;;;;14.20;10.43;;;2.50;99.90;;;;;;4932183;29;20203;-75
2021/12/04 07:14:04;;;;;;;11.40;10.20;;;2.50;99.90;;;;;;4913441;29;20187;-73
2021/12/04 07:16:31;;;;;;;10.37;9.27;;;2.50;99.90;;;;;;4917073;29;20198;-73
2021/12/04 07:18:57;;;;;;;11.37;10.30;;;2.50;99.90;;;;;;4918196;29;20191;-71
2021/12/04 07:21:24;;;;;;;10.80;9.80;;;2.50;99.90;;;;;;4938194;29;20203;-71
2021/12/04 07:23:50;;;;;;;10.57;9.60;;;2.50;99.90;;;;;;4931254;29;20275;-73
2021/12/04 07:26:17;;;;;;;10.57;9.50;;;2.50;99.90;;;;;;4918071;29;20681;-73
2021/12/04 07:28:42;;;;;;;10.70;9.70;;;2.50;99.90;;;;;;4918278;29;20187;-72
2021/12/04 07:31:08;;;;;;;11.30;10.20;;;2.50;99.90;;;;;;4917026;29;20205;-73
2021/12/04 07:33:34;;;;;;;11.80;10.60;;;2.50;99.90;;;;;;4917671;29;20216;-73
2021/12/04 07:36:01;;;;;;;13.23;10.37;;;2.60;99.90;;;;;;4918001;29;20187;-73
2021/12/04 07:38:27;;;;;;;10.57;9.67;;;2.60;99.90;;;;;;4917025;29;20555;-73
2021/12/04 07:40:53;;;;;;;13.30;11.97;;;2.60;99.90;;;;;;4917388;29;20560;-72
2021/12/04 07:43:19;;;;;;;10.90;9.97;;;2.60;99.90;;;;;;4948162;29;20247;-73
2021/12/04 07:45:45;;;;;;;14.43;13.03;;;2.70;99.90;;;;;;4917908;29;20652;-73
2021/12/04 07:48:11;;;;;;;10.13;9.13;;;2.70;99.90;;;;;;4932478;29;20196;-73
2021/12/04 07:50:37;;;;;;;16.93;15.57;;;2.70;99.90;;;;;;4917660;29;20187;-73
2021/12/04 07:53:03;;;;;;;27.50;25.57;;;2.70;99.90;;;;;;4932281;29;20681;-73
2021/12/04 07:55:30;;;;;;;32.90;30.70;;;2.80;99.90;;;;;;4917932;29;20187;-73
2021/12/04 07:57:56;;;;;;;47.13;44.10;;;2.80;99.90;;;;;;4917503;29;20180;-73
2021/12/04 08:00:23;;;;;;;27.00;24.90;;;2.90;99.90;;;;;;4917368;29;20196;-73
2021/12/04 08:02:49;;;;;;;58.00;54.17;;;3.00;99.90;;;;;;4918043;29;20207;-73
2021/12/04 08:05:17;;;;;;;52.03;48.57;;;3.00;99.90;;;;;;4914833;29;20425;-73
2021/12/04 08:07:43;;;;;;;154.47;145.70;;;3.00;99.90;;;;;;4918125;29;20189;-73
2021/12/04 08:10:14;;;;;;;33.73;31.27;;;3.00;99.90;;;;;;4917090;29;20289;-73
2021/12/04 08:12:40;;;;;;;72.17;67.67;;;3.10;99.90;;;;;;4917296;29;20227;-73
2021/12/04 08:15:07;;;;;;;211.43;199.57;;;3.10;99.90;;;;;;4932197;29;20183;-72
2021/12/04 08:17:34;;;;;;;56.10;52.50;;;3.10;99.90;;;;;;4898807;29;20187;-74
2021/12/04 08:20:00;;;;;;;37.73;35.10;;;3.20;99.90;;;;;;4896635;29;20189;-75
2021/12/04 08:22:26;;;;;;;48.53;44.10;;;3.20;99.90;;;;;;4895426;29;20228;-75
2021/12/04 08:24:52;;;;;;;653.93;610.03;;;3.30;99.90;;;;;;4896515;29;20897;-74
2021/12/04 08:27:18;;;;;;;197.17;186.17;;;3.30;99.90;;;;;;4914159;29;20274;-75
2021/12/04 08:29:44;;;;;;;193.83;183.00;;;3.30;99.90;;;;;;4915473;29;20184;-75
2021/12/04 08:32:10;;;;;;;128.87;121.67;;;3.30;99.90;;;;;;4915584;29;20223;-75
2021/12/04 08:34:37;;;;;;;141.60;134.10;;;3.30;99.90;;;;;;4915912;29;20278;-75
2021/12/04 08:37:04;;;;;;;130.93;123.30;;;3.30;99.90;;;;;;4916577;29;20188;-75
2021/12/04 08:39:31;;;;;;;100.90;95.10;;;3.30;99.90;;;;;;4916544;29;20177;-75
2021/12/04 08:41:58;;;;;;;31.87;29.50;;;3.40;99.90;;;;;;4947115;29;20322;-75
2021/12/04 08:44:24;;;;;;;23.63;21.73;;;3.40;99.90;;;;;;4931234;29;20863;-75
2021/12/04 08:46:50;;;;;;;20.00;18.37;;;3.50;99.90;;;;;;4915693;29;20279;-75
2021/12/04 08:49:16;;;;;;;25.07;23.07;;;3.50;99.90;;;;;;4931411;29;20178;-75
2021/12/04 08:51:42;;;;;;;17.73;16.07;;;3.60;99.90;;;;;;4915167;29;20209;-76
2021/12/04 08:54:09;;;;;;;17.20;15.50;;;3.60;99.90;;;;;;4916482;29;20197;-75
2021/12/04 08:56:35;;;;;;;14.67;13.37;;;3.70;99.90;;;;;;4916725;29;20188;-76
2021/12/04 08:59:02;;;;;;;15.87;14.27;;;3.70;99.90;;;;;;4916740;29;20570;-76
2021/12/04 09:01:32;;;;;;;14.67;13.13;;;3.80;99.90;;;;;;4916296;29;20212;-76
2021/12/04 09:04:06;;;;;;;16.73;14.00;;;3.80;99.90;;;;;;4915504;29;20223;-76
2021/12/04 09:06:32;;;;;;;14.50;13.07;;;3.90;99.90;;;;;;4931224;29;20192;-76
2021/12/04 09:08:58;;;;;;;15.60;14.00;;;3.90;99.90;;;;;;4916627;29;20192;-76
2021/12/04 09:11:42;;;;;;;20.13;18.40;;;3.90;99.90;;;;;;4915894;29;20217;-76
2021/12/04 09:14:09;;;;;;;21.20;19.40;;;3.90;99.90;;;;;;4916442;29;20687;-75
2021/12/04 09:16:35;;;;;;;26.47;24.53;;;4.00;99.90;;;;;;4916186;29;20185;-75
2021/12/04 09:19:00;;;;;;;23.80;21.73;;;4.00;99.90;;;;;;4914998;29;20184;-75
2021/12/04 09:21:28;;;;;;;18.73;17.23;;;4.10;99.90;;;;;;4914630;29;20222;-75
2021/12/04 09:24:04;;;;;;;24.27;22.37;;;4.20;99.90;;;;;;4939333;23;20236;-72
2021/12/04 09:26:47;;;;;;;20.53;18.57;;;4.20;99.90;;;;;;4935424;29;20184;-73
2021/12/04 10:17:32;;;;;;;9.70;8.83;;;4.90;99.90;;;;;;4915381;29;20191;-67
2021/12/04 10:20:12;;;;;;;10.40;9.33;;;4.90;99.90;;;;;;4914557;29;20239;-67
2021/12/04 10:23:05;;;;;;;10.23;9.23;;;5.10;99.90;;;;;;4902269;29;20237;-68
2021/12/04 10:33:44;;;;;;;10.20;9.23;;;5.30;99.90;;;;;;4918452;29;20222;-68
2021/12/04 10:36:11;;;;;;;10.33;9.33;;;5.30;99.90;;;;;;4913630;29;20191;-72
2021/12/04 10:38:44;;;;;;;10.83;9.73;;;5.40;99.90;;;;;;4913003;29;20243;-70
2021/12/04 10:41:12;;;;;;;10.80;9.70;;;5.40;99.90;;;;;;4914045;29;20185;-70
2021/12/04 10:43:38;;;;;;;12.20;10.90;;;5.50;99.90;;;;;;4914198;29;20233;-70
2021/12/04 10:46:15;;;;;;;12.77;10.57;;;5.60;99.90;;;;;;4913629;29;20186;-71
2021/12/04 10:48:50;;;;;;;13.17;10.33;;;5.70;99.90;;;;;;4913224;29;20190;-71
2021/12/04 10:51:32;;;;;;;11.47;10.43;;;5.80;99.90;;;;;;4913125;29;20189;-72
2021/12/04 10:54:04;;;;;;;13.27;11.77;;;5.90;99.90;;;;;;4914445;29;20699;-72
2021/12/04 10:56:51;;;;;;;13.23;11.90;;;5.90;99.90;;;;;;4914219;29;20193;-72
2021/12/04 10:59:39;;;;;;;14.43;12.93;;;6.00;99.90;;;;;;4914266;29;20193;-72
2021/12/04 11:02:14;;;;;;;14.90;12.57;;;6.00;99.90;;;;;;4913957;29;20190;-72
2021/12/04 11:07:39;;;;;;;14.33;12.97;;;6.20;99.90;;;;;;4914520;29;20218;-72
2021/12/04 11:21:57;;;;;;;15.23;13.73;;;6.60;99.90;;;;;;4912646;29;20200;-70
2021/12/04 11:27:53;;;;;;;29.27;27.50;;;6.80;99.90;;;;;;4948228;29;20732;-72
2021/12/04 11:36:32;;;;;;;23.77;22.23;;;7.10;99.90;;;;;;4914540;29;20655;-72
2021/12/04 11:38:51;;;;;;;26.20;24.27;;;7.20;99.90;;;;;;4915372;29;20194;-71
2021/12/04 11:41:29;;;;;;;28.23;26.43;;;7.10;99.90;;;;;;4916690;29;20217;-72
2021/12/04 11:44:07;;;;;;;33.37;31.47;;;7.00;99.90;;;;;;4916911;29;20221;-71
2021/12/04 11:46:47;;;;;;;26.37;24.73;;;7.00;99.90;;;;;;4917884;29;20192;-71
2021/12/04 11:49:14;;;;;;;23.20;21.90;;;7.10;99.90;;;;;;4932723;29;20194;-70
2021/12/04 11:51:59;;;;;;;21.37;19.90;;;7.10;99.90;;;;;;4917447;29;20624;-70
2021/12/04 11:54:28;;;;;;;18.80;17.50;;;7.10;99.90;;;;;;4917774;29;20231;-71
2021/12/04 11:57:07;;;;;;;17.83;16.47;;;7.10;99.90;;;;;;4916592;29;20214;-70
2021/12/04 11:59:35;;;;;;;19.53;18.17;;;7.20;99.90;;;;;;4916398;29;20186;-71
2021/12/04 12:02:02;;;;;;;31.10;29.20;;;7.20;99.90;;;;;;4917672;29;20179;-71
2021/12/04 12:04:46;;;;;;;38.97;36.50;;;7.20;99.90;;;;;;4917686;29;20206;-71
2021/12/04 12:07:18;;;;;;;39.90;37.30;;;7.20;99.90;;;;;;4917628;29;20192;-71
2021/12/04 12:09:45;;;;;;;39.03;36.53;;;7.20;99.90;;;;;;4931829;29;20240;-71
2021/12/04 12:12:15;;;;;;;34.23;31.87;;;7.30;99.90;;;;;;4917236;29;20218;-71
2021/12/04 12:14:55;;;;;;;26.97;25.00;;;7.40;99.90;;;;;;4917346;29;20190;-71
2021/12/04 12:17:31;;;;;;;32.23;30.20;;;7.50;99.90;;;;;;4917290;29;20187;-70
2021/12/04 12:19:57;;;;;;;39.97;37.37;;;7.50;99.90;;;;;;4916763;29;20189;-70
2021/12/04 12:22:35;;;;;;;23.33;21.67;;;7.60;99.90;;;;;;4931527;29;20236;-70
2021/12/04 12:34:04;;;;;;;33.20;31.00;;;7.90;99.90;;;;;;4916828;29;20210;-71
2021/12/04 12:36:32;;;;;;;30.13;28.20;;;7.90;99.90;;;;;;4915873;29;20198;-70
2021/12/04 12:39:15;;;;;;;31.53;29.73;;;7.80;99.90;;;;;;4931554;29;20716;-72
2021/12/04 12:41:43;;;;;;;67.30;63.13;;;7.90;99.90;;;;;;4916325;29;20621;-70
2021/12/04 12:44:18;;;;;;;25.87;24.20;;;7.90;99.90;;;;;;4916847;29;20595;-70
2021/12/04 12:46:54;;;;;;;42.83;39.97;;;8.00;99.90;;;;;;4916966;29;20193;-73
2021/12/04 12:49:25;;;;;;;26.03;23.90;;;8.00;99.90;;;;;;4916994;29;20198;-72
2021/12/04 12:52:00;;;;;;;37.63;35.27;;;8.00;99.90;;;;;;4914176;29;20187;-72
2021/12/04 12:54:32;;;;;;;22.30;20.57;;;7.90;99.90;;;;;;4916113;29;20215;-71
2021/12/04 12:57:12;;;;;;;31.23;29.03;;;7.90;99.90;;;;;;4916095;29;20267;-72
2021/12/04 13:00:00;;;;;;;28.70;26.43;;;7.90;99.90;;;;;;4915005;29;20202;-71
2021/12/04 13:14:13;;;;;;;27.07;25.00;;;8.00;99.90;;;;;;4917907;29;20597;-72
2021/12/04 13:16:49;;;;;;;21.90;20.30;;;8.10;99.90;;;;;;4916305;29;20211;-71
2021/12/04 13:19:18;;;;;;;21.43;19.63;;;8.10;99.90;;;;;;4916450;29;20187;-71
2021/12/04 13:21:47;;;;;;;17.60;16.07;;;8.00;99.90;;;;;;4916798;29;20261;-71
2021/12/04 13:24:13;;;;;;;17.43;16.23;;;8.00;99.90;;;;;;4915917;29;20584;-71
2021/12/04 13:26:43;;;;;;;16.73;15.60;;;8.00;99.90;;;;;;4914746;29;20187;-71
2021/12/04 13:29:10;;;;;;;27.83;26.03;;;8.10;99.90;;;;;;4914640;29;20246;-71
2021/12/04 13:31:38;;;;;;;13.50;12.20;;;8.10;99.90;;;;;;4914125;29;20183;-71
2021/12/04 13:34:06;;;;;;;14.13;13.13;;;8.10;99.90;;;;;;4914212;29;20638;-71
2021/12/04 13:36:33;;;;;;;12.70;11.87;;;8.10;99.90;;;;;;4915707;29;20214;-70
2021/12/04 13:39:00;;;;;;;9.23;8.23;;;8.20;99.90;;;;;;4915969;29;20242;-72
2021/12/04 13:41:28;;;;;;;9.97;9.10;;;8.20;99.90;;;;;;4915171;29;20183;-70
2021/12/04 13:43:56;;;;;;;13.03;12.03;;;8.20;99.90;;;;;;4915484;29;20294;-70
2021/12/04 13:46:23;;;;;;;7.73;7.23;;;8.20;99.90;;;;;;4915441;29;20191;-71
2021/12/04 13:48:49;;;;;;;7.57;6.97;;;8.10;99.90;;;;;;4914134;29;20184;-70
2021/12/04 13:51:16;;;;;;;7.63;7.17;;;8.20;99.90;;;;;;4915232;29;20194;-70
2021/12/04 13:53:45;;;;;;;7.33;6.73;;;8.20;99.90;;;;;;4915240;29;20714;-70
2021/12/04 13:56:14;;;;;;;8.23;7.53;;;8.30;99.90;;;;;;4915406;29;20187;-70
2021/12/04 13:58:52;;;;;;;11.20;10.47;;;8.30;99.90;;;;;;4915761;29;20662;-70
2021/12/04 14:01:19;;;;;;;10.03;9.40;;;8.40;99.90;;;;;;4913845;29;20191;-71
2021/12/04 14:03:47;;;;;;;10.80;10.00;;;8.40;99.90;;;;;;4915362;29;20233;-70
2021/12/04 14:06:16;;;;;;;10.40;9.80;;;8.40;99.90;;;;;;4915635;29;20199;-70
2021/12/04 14:08:43;;;;;;;9.60;9.17;;;8.40;99.90;;;;;;4915688;29;20187;-70
2021/12/04 14:11:09;;;;;;;9.83;9.33;;;8.30;99.90;;;;;;4915061;29;20754;-70
2021/12/04 14:13:38;;;;;;;15.43;14.63;;;8.40;99.90;;;;;;4915351;29;20232;-70
2021/12/04 14:16:05;;;;;;;12.07;11.53;;;8.40;99.90;;;;;;4913844;29;20187;-70
2021/12/04 14:18:34;;;;;;;13.10;12.50;;;8.50;99.90;;;;;;4921260;29;20727;-70
2021/12/04 14:21:01;;;;;;;13.33;12.73;;;8.40;99.90;;;;;;4920319;29;20219;-70
2021/12/04 14:23:32;;;;;;;54.87;51.90;;;8.40;99.90;;;;;;4913929;29;20515;-70
2021/12/04 14:26:03;;;;;;;29.03;27.37;;;8.40;99.90;;;;;;4913913;29;20278;-70
2021/12/04 14:28:34;;;;;;;70.97;67.33;;;8.50;99.90;;;;;;4914260;29;20659;-69
2021/12/04 14:30:59;;;;;;;90.00;85.30;;;8.40;99.90;;;;;;4914422;29;20290;-69
2021/12/04 14:33:26;;;;;;;31.63;30.00;;;8.40;99.90;;;;;;4914862;29;20305;-69
2021/12/04 14:35:54;;;;;;;43.50;41.37;;;8.50;99.90;;;;;;4915191;29;20196;-69
2021/12/04 14:38:24;;;;;;;15.73;15.03;;;8.40;99.90;;;;;;4915057;29;20570;-69
2021/12/04 14:40:59;;;;;;;24.50;23.23;;;8.40;99.90;;;;;;4914556;29;20200;-69
2021/12/04 14:43:28;;;;;;;16.30;15.50;;;8.40;99.90;;;;;;4914554;29;20528;-70
2021/12/04 14:45:58;;;;;;;13.23;12.53;;;8.40;99.90;;;;;;4915020;29;20187;-69
2021/12/04 14:48:33;;;;;;;23.73;22.63;;;8.50;99.90;;;;;;4915032;29;20191;-69
2021/12/04 14:51:06;;;;;;;14.23;13.53;;;8.40;99.90;;;;;;4913492;29;20197;-70
2021/12/04 14:53:34;;;;;;;12.63;12.03;;;8.40;99.90;;;;;;4914662;29;20225;-70
2021/12/04 14:56:04;;;;;;;12.53;11.83;;;8.40;99.90;;;;;;4914698;29;20235;-70
2021/12/04 14:58:30;;;;;;;10.80;10.10;;;8.40;99.90;;;;;;4914544;29;20190;-70
2021/12/04 15:01:00;;;;;;;10.43;9.73;;;8.40;99.90;;;;;;4914440;29;20191;-70
2021/12/04 15:03:40;;;;;;;18.63;17.73;;;8.40;99.90;;;;;;4914997;29;20211;-70
2021/12/04 15:06:09;;;;;;;18.43;17.53;;;8.50;99.90;;;;;;4914728;29;20195;-70
2021/12/04 15:08:42;;;;;;;15.30;14.40;;;8.50;99.90;;;;;;4929440;29;20183;-70
2021/12/04 15:11:14;;;;;;;19.20;18.30;;;8.50;99.90;;;;;;4914357;29;20194;-70
2021/12/04 15:13:51;;;;;;;15.90;15.20;;;8.50;99.90;;;;;;4928928;29;20301;-71
2021/12/04 15:16:19;;;;;;;14.07;13.47;;;8.40;99.90;;;;;;4913027;29;20180;-70
2021/12/04 15:18:45;;;;;;;19.67;18.57;;;8.30;99.90;;;;;;4916772;29;20175;-70
2021/12/04 15:21:15;;;;;;;20.13;19.07;;;8.30;99.90;;;;;;4917400;29;20265;-70
2021/12/04 15:23:46;;;;;;;21.03;20.00;;;8.30;99.90;;;;;;4917149;29;20711;-70
2021/12/04 15:26:19;;;;;;;29.83;28.43;;;8.30;99.90;;;;;;4918408;29;20190;-71
2021/12/04 15:28:55;;;;;;;28.30;26.87;;;8.30;99.90;;;;;;4916942;29;20641;-70
2021/12/04 15:31:25;;;;;;;20.00;18.47;;;8.30;99.90;;;;;;4918017;29;20190;-71
2021/12/04 15:33:55;;;;;;;19.60;18.50;;;8.30;99.90;;;;;;4932774;29;20218;-71
2021/12/04 15:36:26;;;;;;;22.90;21.80;;;8.30;99.90;;;;;;4932980;29;20187;-70
2021/12/04 15:38:56;;;;;;;26.27;25.03;;;8.30;99.90;;;;;;4916998;29;20270;-70
2021/12/04 15:41:54;;;;;;;23.83;22.70;;;8.30;99.90;;;;;;4932204;29;20181;-71
2021/12/04 15:47:00;;;;;;;13.37;12.57;;;8.20;99.90;;;;;;4899021;29;20180;-70
2021/12/04 15:54:59;;;;;;;9.53;9.13;;;8.30;99.90;;;;;;4906367;29;20680;-71